sensor_id;sensor_type;location;lat;lon;timestamp;pressure;altitude;pressure_sealevel;temperature;humidity
81230;BME280;70701;44.452;18.652;2024-03-06T00:00:57;98798.44;;;9.42;80.07
81230;BME280;70701;44.452;18.652;2024-03-06T00:03:23;98807.72;;;9.84;78.44
81230;BME280;70701;44.452;18.652;2024-03-06T00:05:49;98806.66;;;9.95;77.65
81230;BME280;70701;44.452;18.652;2024-03-06T00:08:14;98812.59;;;9.97;76.74
81230;BME280;70701;44.452;18.652;2024-03-06T00:10:41;98816.31;;;9.90;77.47
81230;BME280;70701;44.452;18.652;2024-03-06T00:13:07;98805.03;;;9.64;78.15
81230;BME280;70701;44.452;18.652;2024-03-06T00:15:33;98811.47;;;9.78;77.84
81230;BME280;70701;44.452;18.652;2024-03-06T00:17:59;98816.44;;;9.70;78.25
81230;BME280;70701;44.452;18.652;2024-03-06T00:20:25;98816.00;;;9.71;78.00
81230;BME280;70701;44.452;18.652;2024-03-06T00:22:51;98828.59;;;9.76;77.91
81230;BME280;70701;44.452;18.652;2024-03-06T00:25:17;98827.09;;;9.88;77.79
81230;BME280;70701;44.452;18.652;2024-03-06T00:27:43;98834.84;;;9.97;78.12
81230;BME280;70701;44.452;18.652;2024-03-06T00:30:08;98837.25;;;9.95;77.95
81230;BME280;70701;44.452;18.652;2024-03-06T00:32:34;98833.97;;;9.83;78.44
81230;BME280;70701;44.452;18.652;2024-03-06T00:35:00;98838.50;;;9.77;78.42
81230;BME280;70701;44.452;18.652;2024-03-06T00:37:25;98837.03;;;9.72;78.30
81230;BME280;70701;44.452;18.652;2024-03-06T00:39:51;98835.28;;;9.79;77.43
81230;BME280;70701;44.452;18.652;2024-03-06T00:42:17;98830.25;;;9.73;77.34
81230;BME280;70701;44.452;18.652;2024-03-06T00:44:43;98824.00;;;9.69;77.82
81230;BME280;70701;44.452;18.652;2024-03-06T00:47:09;98829.63;;;9.49;78.73
81230;BME280;70701;44.452;18.652;2024-03-06T00:49:34;98827.47;;;9.73;77.45
81230;BME280;70701;44.452;18.652;2024-03-06T00:52:00;98820.00;;;9.54;77.97
81230;BME280;70701;44.452;18.652;2024-03-06T00:54:25;98816.63;;;9.30;79.18
81230;BME280;70701;44.452;18.652;2024-03-06T00:56:51;98828.59;;;9.43;78.63
81230;BME280;70701;44.452;18.652;2024-03-06T00:59:17;98820.72;;;9.25;79.89
81230;BME280;70701;44.452;18.652;2024-03-06T01:01:43;98829.97;;;9.19;80.61
81230;BME280;70701;44.452;18.652;2024-03-06T01:04:09;98828.88;;;9.49;79.23
81230;BME280;70701;44.452;18.652;2024-03-06T01:06:34;98838.69;;;9.70;78.53
81230;BME280;70701;44.452;18.652;2024-03-06T01:09:00;98830.72;;;9.56;78.75
81230;BME280;70701;44.452;18.652;2024-03-06T01:11:26;98825.72;;;9.30;80.35
81230;BME280;70701;44.452;18.652;2024-03-06T01:13:54;98821.06;;;9.27;80.12
81230;BME280;70701;44.452;18.652;2024-03-06T01:16:20;98820.25;;;9.10;81.30
81230;BME280;70701;44.452;18.652;2024-03-06T01:18:46;98814.50;;;9.18;81.25
81230;BME280;70701;44.452;18.652;2024-03-06T01:21:11;98832.84;;;9.15;81.86
81230;BME280;70701;44.452;18.652;2024-03-06T01:23:37;98837.78;;;9.07;82.71
81230;BME280;70701;44.452;18.652;2024-03-06T01:26:02;98837.00;;;9.07;83.01
81230;BME280;70701;44.452;18.652;2024-03-06T01:28:28;98833.38;;;9.26;82.03
81230;BME280;70701;44.452;18.652;2024-03-06T01:30:54;98839.84;;;9.03;83.17
81230;BME280;70701;44.452;18.652;2024-03-06T01:33:19;98835.78;;;9.08;82.96
81230;BME280;70701;44.452;18.652;2024-03-06T01:35:45;98826.44;;;9.18;82.23
81230;BME280;70701;44.452;18.652;2024-03-06T01:38:10;98830.69;;;9.23;82.72
81230;BME280;70701;44.452;18.652;2024-03-06T01:40:37;98822.22;;;9.10;82.63
81230;BME280;70701;44.452;18.652;2024-03-06T01:43:02;98830.75;;;9.19;82.29
81230;BME280;70701;44.452;18.652;2024-03-06T01:45:28;98822.69;;;9.41;81.56
81230;BME280;70701;44.452;18.652;2024-03-06T01:47:53;98817.56;;;9.40;80.87
81230;BME280;70701;44.452;18.652;2024-03-06T01:50:19;98831.22;;;9.50;80.70
81230;BME280;70701;44.452;18.652;2024-03-06T01:52:46;98835.19;;;9.49;80.92
81230;BME280;70701;44.452;18.652;2024-03-06T01:55:13;98837.47;;;9.38;81.39
81230;BME280;70701;44.452;18.652;2024-03-06T01:57:40;98844.06;;;9.28;81.46
81230;BME280;70701;44.452;18.652;2024-03-06T02:00:08;98841.69;;;9.10;81.38
81230;BME280;70701;44.452;18.652;2024-03-06T02:02:42;98842.09;;;9.08;81.74
81230;BME280;70701;44.452;18.652;2024-03-06T02:05:08;98841.94;;;9.15;81.56
81230;BME280;70701;44.452;18.652;2024-03-06T02:07:35;98825.16;;;9.03;81.87
81230;BME280;70701;44.452;18.652;2024-03-06T02:10:01;98832.44;;;8.97;82.40
81230;BME280;70701;44.452;18.652;2024-03-06T02:12:27;98829.25;;;8.98;82.18
81230;BME280;70701;44.452;18.652;2024-03-06T02:14:53;98828.66;;;9.07;81.30
81230;BME280;70701;44.452;18.652;2024-03-06T02:17:18;98825.41;;;8.92;81.28
81230;BME280;70701;44.452;18.652;2024-03-06T02:19:45;98835.91;;;8.84;81.39
81230;BME280;70701;44.452;18.652;2024-03-06T02:22:11;98835.44;;;8.86;81.99
81230;BME280;70701;44.452;18.652;2024-03-06T02:24:42;98835.66;;;8.95;81.14
81230;BME280;70701;44.452;18.652;2024-03-06T02:27:08;98848.63;;;8.82;81.65
81230;BME280;70701;44.452;18.652;2024-03-06T02:29:34;98842.09;;;8.72;81.37
81230;BME280;70701;44.452;18.652;2024-03-06T02:32:01;98825.59;;;8.65;81.91
81230;BME280;70701;44.452;18.652;2024-03-06T02:34:29;98831.34;;;8.74;81.36
81230;BME280;70701;44.452;18.652;2024-03-06T02:36:57;98830.00;;;8.82;81.15
81230;BME280;70701;44.452;18.652;2024-03-06T02:39:22;98819.50;;;8.90;80.15
81230;BME280;70701;44.452;18.652;2024-03-06T02:41:48;98833.84;;;8.48;82.17
81230;BME280;70701;44.452;18.652;2024-03-06T02:44:14;98833.19;;;8.41;83.11
81230;BME280;70701;44.452;18.652;2024-03-06T02:46:41;98837.50;;;8.45;82.85
81230;BME280;70701;44.452;18.652;2024-03-06T02:49:07;98836.66;;;8.25;83.65
81230;BME280;70701;44.452;18.652;2024-03-06T02:51:32;98832.91;;;7.91;85.04
81230;BME280;70701;44.452;18.652;2024-03-06T02:53:58;98839.88;;;7.79;85.92
81230;BME280;70701;44.452;18.652;2024-03-06T02:56:24;98838.09;;;7.66;86.65
81230;BME280;70701;44.452;18.652;2024-03-06T02:58:49;98843.53;;;7.96;85.68
81230;BME280;70701;44.452;18.652;2024-03-06T03:01:16;98842.38;;;8.37;83.70
81230;BME280;70701;44.452;18.652;2024-03-06T03:03:41;98842.63;;;8.47;83.00
81230;BME280;70701;44.452;18.652;2024-03-06T03:06:08;98846.34;;;8.36;83.92
81230;BME280;70701;44.452;18.652;2024-03-06T03:08:33;98846.34;;;8.16;84.32
81230;BME280;70701;44.452;18.652;2024-03-06T03:10:59;98833.75;;;8.12;84.39
81230;BME280;70701;44.452;18.652;2024-03-06T03:13:25;98841.81;;;8.26;83.90
81230;BME280;70701;44.452;18.652;2024-03-06T03:15:51;98848.00;;;8.34;83.56
81230;BME280;70701;44.452;18.652;2024-03-06T03:18:17;98845.75;;;8.49;82.75
81230;BME280;70701;44.452;18.652;2024-03-06T03:20:43;98848.94;;;8.47;81.60
81230;BME280;70701;44.452;18.652;2024-03-06T03:23:09;98853.59;;;8.54;81.37
81230;BME280;70701;44.452;18.652;2024-03-06T03:25:40;98861.72;;;8.45;81.06
81230;BME280;70701;44.452;18.652;2024-03-06T03:28:06;98857.38;;;8.40;80.55
81230;BME280;70701;44.452;18.652;2024-03-06T03:30:32;98856.38;;;8.30;81.71
81230;BME280;70701;44.452;18.652;2024-03-06T03:32:58;98862.50;;;8.22;81.45
81230;BME280;70701;44.452;18.652;2024-03-06T03:35:23;98862.13;;;8.20;81.06
81230;BME280;70701;44.452;18.652;2024-03-06T03:37:53;98867.09;;;8.08;81.54
81230;BME280;70701;44.452;18.652;2024-03-06T03:40:21;98864.38;;;8.05;82.47
81230;BME280;70701;44.452;18.652;2024-03-06T03:42:46;98867.44;;;8.10;81.65
81230;BME280;70701;44.452;18.652;2024-03-06T03:45:13;98857.88;;;8.15;82.39
81230;BME280;70701;44.452;18.652;2024-03-06T03:47:39;98865.03;;;8.12;83.04
81230;BME280;70701;44.452;18.652;2024-03-06T03:50:05;98870.75;;;8.25;81.63
81230;BME280;70701;44.452;18.652;2024-03-06T03:52:31;98865.84;;;8.13;82.38
81230;BME280;70701;44.452;18.652;2024-03-06T03:54:56;98857.22;;;8.07;83.05
81230;BME280;70701;44.452;18.652;2024-03-06T03:57:22;98864.19;;;7.92;83.76
81230;BME280;70701;44.452;18.652;2024-03-06T03:59:48;98865.97;;;7.82;84.32
81230;BME280;70701;44.452;18.652;2024-03-06T04:02:13;98870.66;;;7.85;85.19
81230;BME280;70701;44.452;18.652;2024-03-06T04:04:39;98869.03;;;8.11;83.85
81230;BME280;70701;44.452;18.652;2024-03-06T04:07:05;98868.84;;;7.98;83.98
81230;BME280;70701;44.452;18.652;2024-03-06T04:09:32;98868.91;;;7.95;83.86
81230;BME280;70701;44.452;18.652;2024-03-06T04:12:02;98862.53;;;7.98;84.44
81230;BME280;70701;44.452;18.652;2024-03-06T04:14:29;98860.94;;;7.97;84.75
81230;BME280;70701;44.452;18.652;2024-03-06T04:16:55;98861.00;;;7.93;85.15
81230;BME280;70701;44.452;18.652;2024-03-06T04:19:21;98867.97;;;8.05;84.19
81230;BME280;70701;44.452;18.652;2024-03-06T04:21:47;98876.56;;;8.11;84.23
81230;BME280;70701;44.452;18.652;2024-03-06T04:24:12;98872.63;;;8.08;84.57
81230;BME280;70701;44.452;18.652;2024-03-06T04:26:38;98860.00;;;8.07;84.28
81230;BME280;70701;44.452;18.652;2024-03-06T04:29:03;98872.56;;;8.12;84.43
81230;BME280;70701;44.452;18.652;2024-03-06T04:31:29;98865.44;;;7.91;84.36
81230;BME280;70701;44.452;18.652;2024-03-06T04:33:54;98872.78;;;7.77;85.42
81230;BME280;70701;44.452;18.652;2024-03-06T04:36:20;98871.81;;;7.64;87.27
81230;BME280;70701;44.452;18.652;2024-03-06T04:38:46;98868.31;;;7.84;85.96
81230;BME280;70701;44.452;18.652;2024-03-06T04:41:11;98865.44;;;7.91;85.92
81230;BME280;70701;44.452;18.652;2024-03-06T04:43:37;98858.00;;;7.84;85.89
81230;BME280;70701;44.452;18.652;2024-03-06T04:46:03;98869.28;;;7.73;86.70
81230;BME280;70701;44.452;18.652;2024-03-06T04:48:30;98862.63;;;7.44;88.62
81230;BME280;70701;44.452;18.652;2024-03-06T04:50:56;98883.44;;;7.28;89.18
81230;BME280;70701;44.452;18.652;2024-03-06T04:53:23;98867.44;;;7.12;90.27
81230;BME280;70701;44.452;18.652;2024-03-06T04:55:48;98879.69;;;7.11;91.21
81230;BME280;70701;44.452;18.652;2024-03-06T04:58:14;98880.22;;;7.03;91.39
81230;BME280;70701;44.452;18.652;2024-03-06T05:00:41;98882.91;;;7.10;91.14
81230;BME280;70701;44.452;18.652;2024-03-06T05:03:07;98887.66;;;7.09;90.66
81230;BME280;70701;44.452;18.652;2024-03-06T05:05:33;98887.38;;;7.00;91.92
81230;BME280;70701;44.452;18.652;2024-03-06T05:07:59;98886.41;;;7.41;90.26
81230;BME280;70701;44.452;18.652;2024-03-06T05:10:24;98896.78;;;7.64;88.00
81230;BME280;70701;44.452;18.652;2024-03-06T05:12:51;98876.31;;;7.54;86.94
81230;BME280;70701;44.452;18.652;2024-03-06T05:15:17;98893.13;;;7.44;88.61
81230;BME280;70701;44.452;18.652;2024-03-06T05:17:45;98888.25;;;7.51;87.84
81230;BME280;70701;44.452;18.652;2024-03-06T05:20:10;98899.94;;;7.63;87.42
81230;BME280;70701;44.452;18.652;2024-03-06T05:22:36;98884.56;;;7.58;87.21
81230;BME280;70701;44.452;18.652;2024-03-06T05:25:02;98893.00;;;7.51;87.78
81230;BME280;70701;44.452;18.652;2024-03-06T05:27:28;98881.47;;;7.52;87.58
81230;BME280;70701;44.452;18.652;2024-03-06T05:29:54;98891.84;;;7.48;86.53
81230;BME280;70701;44.452;18.652;2024-03-06T05:32:20;98887.88;;;7.49;87.56
81230;BME280;70701;44.452;18.652;2024-03-06T05:34:46;98889.06;;;7.48;87.15
81230;BME280;70701;44.452;18.652;2024-03-06T05:37:11;98890.75;;;7.42;86.74
81230;BME280;70701;44.452;18.652;2024-03-06T05:39:38;98894.53;;;7.28;87.77
81230;BME280;70701;44.452;18.652;2024-03-06T05:42:05;98902.34;;;7.33;87.57
81230;BME280;70701;44.452;18.652;2024-03-06T05:44:31;98902.66;;;7.39;87.59
81230;BME280;70701;44.452;18.652;2024-03-06T05:47:01;98898.97;;;7.49;87.05
81230;BME280;70701;44.452;18.652;2024-03-06T05:49:27;98896.97;;;7.50;87.40
81230;BME280;70701;44.452;18.652;2024-03-06T05:51:53;98904.09;;;7.51;87.61
81230;BME280;70701;44.452;18.652;2024-03-06T05:54:22;98903.66;;;7.52;86.98
81230;BME280;70701;44.452;18.652;2024-03-06T05:56:48;98897.22;;;7.59;87.06
81230;BME280;70701;44.452;18.652;2024-03-06T05:59:20;98904.81;;;7.55;86.76
81230;BME280;70701;44.452;18.652;2024-03-06T06:01:46;98911.50;;;7.57;86.37
81230;BME280;70701;44.452;18.652;2024-03-06T06:04:13;98913.44;;;7.61;86.49
81230;BME280;70701;44.452;18.652;2024-03-06T06:06:39;98903.19;;;7.57;86.85
81230;BME280;70701;44.452;18.652;2024-03-06T06:09:05;98920.41;;;7.72;85.54
81230;BME280;70701;44.452;18.652;2024-03-06T06:11:31;98920.91;;;7.64;85.46
81230;BME280;70701;44.452;18.652;2024-03-06T06:13:57;98933.47;;;7.45;85.58
81230;BME280;70701;44.452;18.652;2024-03-06T06:16:25;98912.44;;;7.20;86.32
81230;BME280;70701;44.452;18.652;2024-03-06T06:18:51;98926.53;;;7.33;87.01
81230;BME280;70701;44.452;18.652;2024-03-06T06:21:17;98916.63;;;7.32;87.07
81230;BME280;70701;44.452;18.652;2024-03-06T06:23:44;98927.94;;;7.45;87.05
81230;BME280;70701;44.452;18.652;2024-03-06T06:26:10;98929.09;;;7.47;86.88
81230;BME280;70701;44.452;18.652;2024-03-06T06:28:36;98927.81;;;7.52;86.93
81230;BME280;70701;44.452;18.652;2024-03-06T06:31:04;98924.59;;;7.57;86.89
81230;BME280;70701;44.452;18.652;2024-03-06T06:33:30;98924.00;;;7.69;86.64
81230;BME280;70701;44.452;18.652;2024-03-06T06:35:56;98915.81;;;7.62;86.27
81230;BME280;70701;44.452;18.652;2024-03-06T06:38:22;98923.56;;;7.71;86.50
81230;BME280;70701;44.452;18.652;2024-03-06T06:40:47;98924.75;;;7.73;86.31
81230;BME280;70701;44.452;18.652;2024-03-06T06:43:13;98930.59;;;7.79;86.22
81230;BME280;70701;44.452;18.652;2024-03-06T06:45:40;98922.91;;;7.90;86.00
81230;BME280;70701;44.452;18.652;2024-03-06T06:48:06;98920.53;;;7.89;86.08
81230;BME280;70701;44.452;18.652;2024-03-06T06:50:32;98914.44;;;7.97;85.92
81230;BME280;70701;44.452;18.652;2024-03-06T06:53:00;98907.56;;;8.06;85.99
81230;BME280;70701;44.452;18.652;2024-03-06T06:55:26;98912.56;;;8.14;85.62
81230;BME280;70701;44.452;18.652;2024-03-06T06:57:52;98909.59;;;8.25;85.11
81230;BME280;70701;44.452;18.652;2024-03-06T07:00:18;98918.56;;;8.33;85.04
81230;BME280;70701;44.452;18.652;2024-03-06T07:02:44;98907.13;;;8.31;85.50
81230;BME280;70701;44.452;18.652;2024-03-06T07:05:10;98909.84;;;8.34;84.78
81230;BME280;70701;44.452;18.652;2024-03-06T07:07:37;98900.13;;;8.46;84.62
81230;BME280;70701;44.452;18.652;2024-03-06T07:10:04;98916.28;;;8.51;84.88
81230;BME280;70701;44.452;18.652;2024-03-06T07:12:31;98913.03;;;8.56;84.52
81230;BME280;70701;44.452;18.652;2024-03-06T07:14:58;98896.00;;;8.54;84.03
81230;BME280;70701;44.452;18.652;2024-03-06T07:17:25;98900.97;;;8.63;84.40
81230;BME280;70701;44.452;18.652;2024-03-06T07:19:52;98897.66;;;8.72;83.88
81230;BME280;70701;44.452;18.652;2024-03-06T07:22:18;98904.19;;;8.82;83.65
81230;BME280;70701;44.452;18.652;2024-03-06T07:24:45;98905.19;;;8.91;83.76
81230;BME280;70701;44.452;18.652;2024-03-06T07:27:11;98906.53;;;9.03;83.29
81230;BME280;70701;44.452;18.652;2024-03-06T07:29:37;98908.03;;;9.08;82.64
81230;BME280;70701;44.452;18.652;2024-03-06T07:32:03;98911.78;;;9.18;82.55
81230;BME280;70701;44.452;18.652;2024-03-06T07:34:31;98906.47;;;9.07;82.73
81230;BME280;70701;44.452;18.652;2024-03-06T07:36:56;98904.03;;;9.09;82.56
81230;BME280;70701;44.452;18.652;2024-03-06T07:39:23;98897.22;;;9.30;81.77
81230;BME280;70701;44.452;18.652;2024-03-06T07:41:49;98903.69;;;9.60;80.59
81230;BME280;70701;44.452;18.652;2024-03-06T07:44:16;98904.75;;;9.66;80.43
81230;BME280;70701;44.452;18.652;2024-03-06T07:46:43;98908.66;;;9.85;80.56
81230;BME280;70701;44.452;18.652;2024-03-06T07:49:11;98899.53;;;10.01;78.63
81230;BME280;70701;44.452;18.652;2024-03-06T07:51:37;98890.75;;;9.86;78.73
81230;BME280;70701;44.452;18.652;2024-03-06T07:54:05;98919.88;;;10.14;78.60
81230;BME280;70701;44.452;18.652;2024-03-06T07:56:30;98913.66;;;10.23;77.99
81230;BME280;70701;44.452;18.652;2024-03-06T07:58:56;98914.66;;;10.16;78.39
81230;BME280;70701;44.452;18.652;2024-03-06T08:01:23;98906.28;;;10.16;78.91
81230;BME280;70701;44.452;18.652;2024-03-06T08:03:49;98850.91;;;9.89;78.41
81230;BME280;70701;44.452;18.652;2024-03-06T08:06:15;98864.47;;;10.03;78.74
81230;BME280;70701;44.452;18.652;2024-03-06T08:08:42;98912.56;;;10.37;78.81
81230;BME280;70701;44.452;18.652;2024-03-06T08:11:13;98901.38;;;10.53;78.68
81230;BME280;70701;44.452;18.652;2024-03-06T08:13:39;98902.66;;;10.65;78.27
81230;BME280;70701;44.452;18.652;2024-03-06T08:16:05;98904.56;;;10.68;78.12
81230;BME280;70701;44.452;18.652;2024-03-06T08:18:32;98906.34;;;10.75;78.26
81230;BME280;70701;44.452;18.652;2024-03-06T08:20:58;98908.41;;;10.87;77.27
81230;BME280;70701;44.452;18.652;2024-03-06T08:23:24;98888.66;;;10.94;76.61
81230;BME280;70701;44.452;18.652;2024-03-06T08:25:51;98891.44;;;10.94;76.58
81230;BME280;70701;44.452;18.652;2024-03-06T08:28:16;98904.34;;;11.17;76.28
81230;BME280;70701;44.452;18.652;2024-03-06T08:30:42;98896.41;;;11.16;76.60
81230;BME280;70701;44.452;18.652;2024-03-06T08:33:10;98902.34;;;11.31;76.21
81230;BME280;70701;44.452;18.652;2024-03-06T08:35:36;98893.75;;;11.25;76.53
81230;BME280;70701;44.452;18.652;2024-03-06T08:38:01;98899.00;;;11.36;76.00
81230;BME280;70701;44.452;18.652;2024-03-06T08:40:27;98896.31;;;11.58;74.85
81230;BME280;70701;44.452;18.652;2024-03-06T08:42:54;98884.47;;;11.66;74.83
81230;BME280;70701;44.452;18.652;2024-03-06T08:45:20;98890.28;;;11.72;74.05
81230;BME280;70701;44.452;18.652;2024-03-06T08:47:46;98887.59;;;11.81;74.30
81230;BME280;70701;44.452;18.652;2024-03-06T08:50:18;98879.00;;;11.89;73.76
81230;BME280;70701;44.452;18.652;2024-03-06T08:52:47;98884.91;;;12.03;73.75
81230;BME280;70701;44.452;18.652;2024-03-06T08:55:13;98878.50;;;12.16;72.81
81230;BME280;70701;44.452;18.652;2024-03-06T08:57:39;98879.84;;;12.24;72.54
81230;BME280;70701;44.452;18.652;2024-03-06T09:00:06;98878.00;;;12.30;72.47
81230;BME280;70701;44.452;18.652;2024-03-06T09:02:36;98879.75;;;12.37;71.65
81230;BME280;70701;44.452;18.652;2024-03-06T09:05:06;98878.75;;;12.66;70.73
81230;BME280;70701;44.452;18.652;2024-03-06T09:07:32;98867.41;;;13.13;71.55
81230;BME280;70701;44.452;18.652;2024-03-06T09:10:07;98864.44;;;13.39;70.53
81230;BME280;70701;44.452;18.652;2024-03-06T09:12:33;98860.91;;;13.57;69.69
81230;BME280;70701;44.452;18.652;2024-03-06T09:15:00;98854.78;;;13.40;69.45
81230;BME280;70701;44.452;18.652;2024-03-06T09:17:26;98854.56;;;13.56;70.16
81230;BME280;70701;44.452;18.652;2024-03-06T09:19:52;98847.97;;;13.91;69.61
81230;BME280;70701;44.452;18.652;2024-03-06T09:22:18;98850.53;;;13.26;68.64
81230;BME280;70701;44.452;18.652;2024-03-06T09:24:46;98846.78;;;13.60;69.17
81230;BME280;70701;44.452;18.652;2024-03-06T09:27:12;98830.00;;;13.70;69.31
81230;BME280;70701;44.452;18.652;2024-03-06T09:29:39;98841.91;;;14.11;69.11
81230;BME280;70701;44.452;18.652;2024-03-06T09:32:05;98827.91;;;14.20;67.74
81230;BME280;70701;44.452;18.652;2024-03-06T09:34:31;98833.50;;;14.29;67.88
81230;BME280;70701;44.452;18.652;2024-03-06T09:36:58;98815.31;;;14.06;67.42
81230;BME280;70701;44.452;18.652;2024-03-06T09:39:24;98833.03;;;14.49;67.23
81230;BME280;70701;44.452;18.652;2024-03-06T09:41:50;98836.47;;;14.63;66.09
81230;BME280;70701;44.452;18.652;2024-03-06T09:44:19;98824.81;;;14.36;64.81
81230;BME280;70701;44.452;18.652;2024-03-06T09:46:47;98841.94;;;14.66;66.41
81230;BME280;70701;44.452;18.652;2024-03-06T09:49:18;98834.88;;;14.89;65.38
81230;BME280;70701;44.452;18.652;2024-03-06T09:51:48;98829.72;;;14.88;64.47
81230;BME280;70701;44.452;18.652;2024-03-06T09:54:16;98824.31;;;14.56;64.47
81230;BME280;70701;44.452;18.652;2024-03-06T09:56:45;98819.97;;;14.37;63.74
81230;BME280;70701;44.452;18.652;2024-03-06T09:59:11;98810.59;;;13.75;65.54
81230;BME280;70701;44.452;18.652;2024-03-06T10:01:43;98801.22;;;13.60;65.45
81230;BME280;70701;44.452;18.652;2024-03-06T10:04:27;98824.78;;;14.09;64.79
81230;BME280;70701;44.452;18.652;2024-03-06T10:06:58;98812.63;;;14.39;64.03
81230;BME280;70701;44.452;18.652;2024-03-06T10:09:26;98818.09;;;14.43;64.13
81230;BME280;70701;44.452;18.652;2024-03-06T10:11:53;98800.78;;;14.82;64.06
81230;BME280;70701;44.452;18.652;2024-03-06T10:14:19;98805.63;;;15.14;63.35
81230;BME280;70701;44.452;18.652;2024-03-06T10:16:56;98809.56;;;15.50;62.22
81230;BME280;70701;44.452;18.652;2024-03-06T10:19:23;98808.94;;;15.46;60.23
81230;BME280;70701;44.452;18.652;2024-03-06T10:21:50;98805.44;;;15.61;61.09
81230;BME280;70701;44.452;18.652;2024-03-06T10:24:23;98801.66;;;15.40;58.76
81230;BME280;70701;44.452;18.652;2024-03-06T10:26:51;98804.41;;;15.49;57.59
81230;BME280;70701;44.452;18.652;2024-03-06T10:29:20;98799.50;;;15.59;57.19
81230;BME280;70701;44.452;18.652;2024-03-06T10:31:51;98798.56;;;15.86;56.93
81230;BME280;70701;44.452;18.652;2024-03-06T10:34:18;98789.78;;;15.93;57.22
81230;BME280;70701;44.452;18.652;2024-03-06T10:36:55;98787.91;;;16.14;56.30
81230;BME280;70701;44.452;18.652;2024-03-06T10:39:23;98784.47;;;15.95;55.53
81230;BME280;70701;44.452;18.652;2024-03-06T10:41:55;98783.28;;;15.87;56.54
81230;BME280;70701;44.452;18.652;2024-03-06T10:44:24;98777.66;;;16.11;55.39
81230;BME280;70701;44.452;18.652;2024-03-06T10:47:01;98764.75;;;16.19;55.38
81230;BME280;70701;44.452;18.652;2024-03-06T10:49:28;98762.47;;;16.32;57.81
81230;BME280;70701;44.452;18.652;2024-03-06T10:51:58;98759.84;;;16.44;59.74
81230;BME280;70701;44.452;18.652;2024-03-06T10:54:28;98747.06;;;16.58;60.34
81230;BME280;70701;44.452;18.652;2024-03-06T10:56:55;98755.41;;;16.67;57.72
81230;BME280;70701;44.452;18.652;2024-03-06T10:59:25;98736.59;;;15.89;53.71
81230;BME280;70701;44.452;18.652;2024-03-06T11:01:54;98739.13;;;15.87;54.72
81230;BME280;70701;44.452;18.652;2024-03-06T11:04:25;98738.63;;;16.43;61.11
81230;BME280;70701;44.452;18.652;2024-03-06T11:06:51;98730.78;;;16.47;56.22
81230;BME280;70701;44.452;18.652;2024-03-06T11:09:17;98730.78;;;16.47;54.74
81230;BME280;70701;44.452;18.652;2024-03-06T11:11:53;98714.66;;;16.77;57.84
81230;BME280;70701;44.452;18.652;2024-03-06T11:14:23;98728.84;;;16.83;55.67
81230;BME280;70701;44.452;18.652;2024-03-06T11:17:15;98727.78;;;16.50;51.35
81230;BME280;70701;44.452;18.652;2024-03-06T11:28:30;98700.13;;;17.29;51.00
81230;BME280;70701;44.452;18.652;2024-03-06T11:31:09;98705.41;;;17.42;49.09
81230;BME280;70701;44.452;18.652;2024-03-06T11:33:43;98695.53;;;17.52;49.54
81230;BME280;70701;44.452;18.652;2024-03-06T11:36:25;98691.97;;;17.52;47.41
81230;BME280;70701;44.452;18.652;2024-03-06T11:39:04;98684.47;;;17.69;46.32
81230;BME280;70701;44.452;18.652;2024-03-06T11:41:52;98688.34;;;17.72;46.72
81230;BME280;70701;44.452;18.652;2024-03-06T11:44:21;98680.81;;;18.04;44.90
81230;BME280;70701;44.452;18.652;2024-03-06T11:49:21;98675.13;;;17.98;48.42
81230;BME280;70701;44.452;18.652;2024-03-06T11:51:53;98666.78;;;18.10;48.21
81230;BME280;70701;44.452;18.652;2024-03-06T11:54:19;98662.78;;;17.96;49.43
81230;BME280;70701;44.452;18.652;2024-03-06T11:56:49;98663.31;;;17.53;49.72
81230;BME280;70701;44.452;18.652;2024-03-06T11:59:29;98665.25;;;17.47;49.80
81230;BME280;70701;44.452;18.652;2024-03-06T12:01:57;98665.63;;;17.34;50.26
81230;BME280;70701;44.452;18.652;2024-03-06T12:04:24;98660.44;;;17.27;50.92
81230;BME280;70701;44.452;18.652;2024-03-06T12:06:50;98646.13;;;17.10;50.88
81230;BME280;70701;44.452;18.652;2024-03-06T12:09:16;98654.03;;;16.91;51.44
81230;BME280;70701;44.452;18.652;2024-03-06T12:11:50;98630.59;;;16.64;51.53
81230;BME280;70701;44.452;18.652;2024-03-06T12:14:18;98648.56;;;16.52;52.76
81230;BME280;70701;44.452;18.652;2024-03-06T12:17:05;98649.84;;;16.36;53.17
81230;BME280;70701;44.452;18.652;2024-03-06T12:19:34;98650.84;;;16.68;53.64
81230;BME280;70701;44.452;18.652;2024-03-06T12:22:01;98649.16;;;16.41;54.50
81230;BME280;70701;44.452;18.652;2024-03-06T12:24:29;98645.22;;;16.18;53.80
81230;BME280;70701;44.452;18.652;2024-03-06T12:27:03;98641.78;;;16.29;53.90
81230;BME280;70701;44.452;18.652;2024-03-06T12:29:31;98638.88;;;16.23;54.53
81230;BME280;70701;44.452;18.652;2024-03-06T12:31:58;98635.50;;;16.19;54.11
81230;BME280;70701;44.452;18.652;2024-03-06T12:34:24;98640.25;;;16.43;54.45
81230;BME280;70701;44.452;18.652;2024-03-06T12:36:55;98638.16;;;16.73;53.41
81230;BME280;70701;44.452;18.652;2024-03-06T12:39:24;98633.88;;;16.78;52.88
81230;BME280;70701;44.452;18.652;2024-03-06T12:41:50;98610.59;;;16.77;52.00
81230;BME280;70701;44.452;18.652;2024-03-06T12:44:16;98627.09;;;16.69;50.19
81230;BME280;70701;44.452;18.652;2024-03-06T12:46:43;98631.72;;;16.52;50.24
81230;BME280;70701;44.452;18.652;2024-03-06T12:49:09;98629.97;;;16.40;49.95
81230;BME280;70701;44.452;18.652;2024-03-06T12:51:35;98608.13;;;16.49;50.54
81230;BME280;70701;44.452;18.652;2024-03-06T12:54:01;98619.59;;;16.96;51.26
81230;BME280;70701;44.452;18.652;2024-03-06T12:56:26;98613.31;;;16.86;49.05
81230;BME280;70701;44.452;18.652;2024-03-06T12:58:52;98613.41;;;16.77;49.04
81230;BME280;70701;44.452;18.652;2024-03-06T13:01:18;98615.25;;;16.95;49.69
81230;BME280;70701;44.452;18.652;2024-03-06T13:03:45;98609.47;;;17.04;48.89
81230;BME280;70701;44.452;18.652;2024-03-06T13:06:11;98616.28;;;16.98;48.35